Time;durP1;ratioP1;P1;durP2;ratioP2;P2;SDS_P1;SDS_P2;PMS_P1;PMS_P2;Temp;Humidity;BMP_temperature;BMP_pressure;BME280_temperature;BME280_humidity;BME280_pressure;Samples;Min_cycle;Max_cycle;Signal;HPM_P1;HPM_P2
2023/01/23 00:00:53;;;;;;;13.90;6.40;;;;;;;3.75;84.70;100445.83;105470;1254;76302;-24
2023/01/23 00:03:21;;;;;;;11.60;6.70;;;;;;;4.21;83.35;100442.87;105816;1258;76484;-24
2023/01/23 00:06:02;;;;;;;9.00;6.10;;;;;;;4.15;82.62;100440.99;105662;1258;73070;-23
2023/01/23 00:08:29;;;;;;;9.60;5.80;;;;;;;3.88;82.77;100439.77;105523;1260;62860;-24
2023/01/23 00:10:56;;;;;;;9.10;6.30;;;;;;;3.61;83.24;100440.96;105555;1258;62486;-24
2023/01/23 00:13:23;;;;;;;10.60;6.70;;;;;;;3.36;84.03;100441.35;105678;1259;76345;-24
2023/01/23 00:15:51;;;;;;;11.80;5.50;;;;;;;3.33;84.62;100442.64;105647;1259;76746;-24
2023/01/23 00:18:18;;;;;;;8.40;5.50;;;;;;;3.91;84.19;100441.58;105569;1259;75695;-24
2023/01/23 00:20:45;;;;;;;12.20;7.00;;;;;;;4.14;82.72;100442.58;105607;1254;62618;-24
2023/01/23 00:23:12;;;;;;;9.40;6.40;;;;;;;4.02;82.73;100442.95;105438;1258;62543;-24
2023/01/23 00:25:40;;;;;;;8.60;5.00;;;;;;;3.77;82.82;100448.71;105590;1260;76389;-24
2023/01/23 00:28:07;;;;;;;3.60;2.60;;;;;;;3.50;83.32;100447.45;105570;1259;76619;-23
2023/01/23 00:30:34;;;;;;;4.10;2.70;;;;;;;3.32;84.15;100446.09;105429;1259;75127;-24
2023/01/23 00:33:01;;;;;;;6.80;4.50;;;;;;;3.85;83.65;100452.76;105644;1259;62678;-23
2023/01/23 00:35:28;;;;;;;5.00;3.50;;;;;;;4.17;82.13;100455.38;105459;1259;62808;-23
2023/01/23 00:37:56;;;;;;;6.10;3.90;;;;;;;4.09;81.88;100464.03;105475;1254;74171;-24
2023/01/23 00:40:23;;;;;;;8.10;4.50;;;;;;;3.81;82.05;100472.31;105308;1254;76776;-24
2023/01/23 00:42:52;;;;;;;10.20;5.90;;;;;;;3.48;82.73;100477.90;105457;1254;74036;-24
2023/01/23 00:45:19;;;;;;;6.60;4.60;;;;;;;3.12;83.57;100479.95;105324;1260;61164;-24
2023/01/23 00:47:46;;;;;;;7.60;4.30;;;;;;;2.99;84.54;100481.66;105450;1260;61733;-24
2023/01/23 00:50:14;;;;;;;8.30;5.10;;;;;;;3.53;84.32;100483.61;105521;1260;76182;-24
2023/01/23 00:52:41;;;;;;;7.10;4.40;;;;;;;3.80;83.05;100483.67;105580;1260;76563;-24
2023/01/23 00:55:09;;;;;;;9.70;6.20;;;;;;;3.73;82.80;100486.98;105818;1259;74233;-23
2023/01/23 00:57:36;;;;;;;8.70;5.40;;;;;;;3.51;83.12;100487.43;105837;1260;62882;-24
2023/01/23 01:00:04;;;;;;;11.00;6.70;;;;;;;3.29;83.55;100487.88;105544;1259;61496;-24
2023/01/23 01:04:27;;;;;;;10.00;6.00;;;;;;;3.23;84.58;100485.98;102762;1294;600394;-25
2023/01/23 01:06:54;;;;;;;9.30;6.30;;;;;;;3.68;83.64;100483.85;105016;1264;61493;-25
2023/01/23 01:09:21;;;;;;;11.30;6.60;;;;;;;3.57;82.87;100487.27;105122;1264;61734;-25
2023/01/23 01:11:50;;;;;;;8.10;5.00;;;;;;;3.42;83.23;100486.67;104849;1270;73584;-25
2023/01/23 01:14:17;;;;;;;10.30;7.00;;;;;;;3.15;83.90;100487.94;104869;1264;74903;-25
2023/01/23 01:16:46;;;;;;;9.60;6.10;;;;;;;2.85;84.73;100486.15;105064;1269;74186;-25
2023/01/23 01:19:15;;;;;;;13.30;7.80;;;;;;;2.81;85.23;100483.70;103834;1268;1554773;-25
2023/01/23 01:21:42;;;;;;;9.90;5.90;;;;;;;3.14;84.55;100487.28;105183;1269;62803;-25
2023/01/23 01:24:10;;;;;;;7.90;4.70;;;;;;;3.17;83.99;100489.42;105234;1267;75148;-22
2023/01/23 01:26:39;;;;;;;7.20;5.50;;;;;;;2.90;84.37;100494.09;104955;1270;76997;-24
2023/01/23 01:29:06;;;;;;;11.40;6.80;;;;;;;2.68;84.74;100493.10;105035;1264;73779;-25
2023/01/23 01:31:33;;;;;;;8.20;4.50;;;;;;;2.45;85.28;100494.72;105272;1260;61951;-25
2023/01/23 01:34:01;;;;;;;10.60;6.00;;;;;;;2.71;85.55;100492.68;105547;1260;61128;-25
2023/01/23 01:36:28;;;;;;;12.10;6.90;;;;;;;3.04;84.35;100491.50;105091;1261;75718;-25
2023/01/23 01:38:55;;;;;;;12.30;7.20;;;;;;;3.01;83.98;100490.55;105044;1265;76360;-25
2023/01/23 01:41:24;;;;;;;11.30;7.00;;;;;;;2.84;84.22;100488.25;105180;1264;73864;-25
2023/01/23 01:43:52;;;;;;;11.80;7.50;;;;;;;2.59;84.61;100493.69;105155;1266;62079;-24
2023/01/23 01:46:25;;;;;;;8.20;4.80;;;;;;;2.35;85.24;100496.49;105267;1260;61782;-25
2023/01/23 01:48:58;;;;;;;12.90;7.60;;;;;;;2.55;85.54;100501.99;105172;1268;75468;-25
2023/01/23 01:51:42;;;;;;;8.20;4.20;;;;;;;2.94;84.50;100501.52;105100;1260;76871;-25
2023/01/23 01:54:15;;;;;;;11.10;5.80;;;;;;;2.97;83.47;100504.70;105058;1266;74942;-24
2023/01/23 01:57:10;;;;;;;11.80;7.50;;;;;;;2.73;83.63;100508.61;104844;1260;62572;-25
2023/01/23 01:59:44;;;;;;;8.60;5.10;;;;;;;2.41;84.32;100511.45;105113;1260;61514;-25
2023/01/23 02:02:26;;;;;;;;;;;;;;;2.36;85.25;100515.15;105196;1260;75691;-25
2023/01/23 02:05:16;;;;;;;6.00;4.00;;;;;;;2.82;84.47;100518.65;105138;1260;76810;-25
2023/01/23 02:07:58;;;;;;;7.70;4.00;;;;;;;2.84;83.55;100520.66;104892;1261;75329;-23
2023/01/23 02:10:25;;;;;;;9.10;5.70;;;;;;;2.58;83.65;100520.79;104953;1261;62671;-22
2023/01/23 02:12:53;;;;;;;11.10;7.50;;;;;;;2.33;84.53;100524.48;105265;1261;61608;-22
2023/01/23 02:15:21;;;;;;;6.20;3.80;;;;;;;2.12;84.98;100524.12;105113;1266;75577;-25
2023/01/23 02:17:49;;;;;;;17.90;9.30;;;;;;;2.47;85.04;100523.65;104934;1260;76747;-25
2023/01/23 02:20:16;;;;;;;16.80;10.90;;;;;;;2.73;84.02;100520.42;105190;1269;75034;-25
2023/01/23 02:22:48;;;;;;;8.90;6.60;;;;;;;2.51;83.50;100520.61;105209;1264;62617;-25
2023/01/23 02:25:25;;;;;;;8.10;5.70;;;;;;;2.06;83.63;100528.02;105242;1261;61555;-25
2023/01/23 02:27:52;;;;;;;7.20;4.50;;;;;;;1.71;84.38;100530.65;105157;1261;75580;-25
2023/01/23 02:30:22;;;;;;;9.40;3.90;;;;;;;1.36;85.59;100534.59;105291;1266;76865;-25
2023/01/23 02:32:50;;;;;;;7.00;4.60;;;;;;;1.50;86.44;100531.76;105175;1265;75045;-22
2023/01/23 02:35:25;;;;;;;9.50;5.80;;;;;;;1.83;84.97;100535.20;105336;1257;61163;-24
2023/01/23 02:37:54;;;;;;;7.80;3.80;;;;;;;1.77;84.34;100538.06;105586;1260;62785;-24
2023/01/23 02:40:36;;;;;;;5.90;4.20;;;;;;;1.47;84.61;100537.66;105741;1259;75650;-25
2023/01/23 02:43:06;;;;;;;9.90;5.60;;;;;;;1.23;85.06;100536.39;105583;1254;76928;-25
2023/01/23 02:45:34;;;;;;;6.90;4.60;;;;;;;1.17;85.48;100536.17;105720;1253;75069;-24
2023/01/23 02:48:02;;;;;;;4.60;3.00;;;;;;;1.49;84.70;100539.83;105726;1253;62831;-25
2023/01/23 02:50:29;;;;;;;5.30;3.80;;;;;;;1.48;84.00;100546.02;105682;1257;62567;-25
2023/01/23 02:52:57;;;;;;;5.10;2.90;;;;;;;1.35;83.79;100546.60;105795;1253;75510;-25
2023/01/23 02:55:33;;;;;;;5.70;3.80;;;;;;;1.02;84.34;100548.08;105844;1254;76913;-25
2023/01/23 03:00:47;;;;;;;3.40;2.40;;;;;;;0.46;86.97;100552.07;105646;1255;63643;-25
2023/01/23 03:03:14;;;;;;;6.10;3.40;;;;;;;1.00;86.23;100552.89;105504;1253;61043;-25
2023/01/23 03:05:41;;;;;;;2.60;1.80;;;;;;;1.19;84.76;100555.63;105504;1254;74549;-25
2023/01/23 03:08:09;;;;;;;2.60;1.80;;;;;;;1.19;84.26;100554.09;105742;1254;75811;-25
2023/01/23 03:10:36;;;;;;;4.30;3.10;;;;;;;0.97;84.12;100552.76;105762;1253;75312;-25
2023/01/23 03:13:06;;;;;;;3.80;2.20;;;;;;;0.77;84.63;100555.33;105797;1254;61183;-25
2023/01/23 03:15:34;;;;;;;3.70;2.50;;;;;;;0.62;84.99;100555.74;105740;1254;61680;-24
2023/01/23 03:18:02;;;;;;;3.00;2.40;;;;;;;1.02;84.58;100555.42;105684;1260;75221;-25
2023/01/23 03:20:36;;;;;;;5.00;3.00;;;;;;;1.16;83.47;100555.33;105811;1254;75451;-25
2023/01/23 03:23:03;;;;;;;3.10;2.50;;;;;;;1.07;83.27;100560.63;105704;1254;75195;-24
2023/01/23 03:25:30;;;;;;;4.40;2.30;;;;;;;0.85;83.74;100562.55;105647;1254;61895;-24
2023/01/23 03:27:58;;;;;;;4.00;2.80;;;;;;;0.63;84.37;100565.13;105660;1254;61186;-25
2023/01/23 03:30:25;;;;;;;3.00;2.20;;;;;;;0.47;85.16;100570.52;105750;1257;75478;-25
2023/01/23 03:32:53;;;;;;;5.20;2.70;;;;;;;0.84;85.20;100568.05;105538;1254;77052;-25
2023/01/23 03:35:21;;;;;;;4.20;2.50;;;;;;;1.26;83.81;100567.48;105653;1258;74168;-25
2023/01/23 03:37:51;;;;;;;3.80;2.50;;;;;;;1.28;83.26;100571.20;105826;1254;61789;-25
2023/01/23 03:43:07;;;;;;;3.60;2.60;;;;;;;0.79;83.63;100568.98;105666;1254;75484;-25
2023/01/23 03:45:37;;;;;;;3.60;1.80;;;;;;;0.59;84.45;100574.59;105699;1253;75874;-25
2023/01/23 03:48:04;;;;;;;2.80;2.10;;;;;;;0.84;84.47;100574.70;105830;1254;74854;-25
2023/01/23 03:50:32;;;;;;;4.60;3.10;;;;;;;1.27;82.91;100576.18;105849;1257;61577;-25
2023/01/23 03:52:59;;;;;;;3.60;3.10;;;;;;;1.30;82.45;100575.09;105703;1259;62797;-25
2023/01/23 03:55:26;;;;;;;3.80;2.80;;;;;;;1.00;82.43;100575.98;105585;1260;74175;-25
2023/01/23 03:57:54;;;;;;;3.60;2.60;;;;;;;0.71;83.21;100575.42;105798;1254;76580;-25
2023/01/23 04:00:25;;;;;;;3.90;2.60;;;;;;;0.48;83.99;100576.82;105654;1254;75174;-25
2023/01/23 04:02:56;;;;;;;3.20;2.40;;;;;;;0.22;84.88;100577.02;105614;1254;62429;-25
2023/01/23 04:05:23;;;;;;;3.30;2.40;;;;;;;0.61;84.96;100579.35;105747;1259;61645;-25
2023/01/23 04:07:50;;;;;;;3.20;2.30;;;;;;;1.03;83.66;100577.81;105648;1259;75311;-24
2023/01/23 04:10:18;;;;;;;4.50;2.70;;;;;;;0.97;82.98;100581.50;105696;1254;76499;-24
2023/01/23 04:12:49;;;;;;;3.40;2.20;;;;;;;0.79;83.46;100587.96;105834;1257;74184;-24
2023/01/23 04:15:17;;;;;;;3.80;2.50;;;;;;;0.53;83.89;100591.09;105797;1253;61250;-24
2023/01/23 04:17:44;;;;;;;3.00;2.10;;;;;;;0.26;84.82;100590.46;105664;1254;61453;-24
2023/01/23 04:20:12;;;;;;;4.60;2.50;;;;;;;0.72;84.73;100589.25;105565;1257;75477;-24
2023/01/23 04:22:41;;;;;;;2.30;1.80;;;;;;;1.11;84.00;100585.20;105321;1260;76676;-24
2023/01/23 04:25:09;;;;;;;2.10;1.60;;;;;;;1.00;82.91;100582.64;105783;1254;73999;-24
2023/01/23 04:27:36;;;;;;;3.90;2.50;;;;;;;0.73;83.24;100587.54;105745;1252;61167;-24
2023/01/23 04:30:04;;;;;;;3.00;2.10;;;;;;;0.41;83.85;100592.29;105806;1254;61741;-24
2023/01/23 04:32:33;;;;;;;3.40;1.80;;;;;;;0.31;84.63;100597.91;105594;1260;75494;-24
2023/01/23 04:35:00;;;;;;;2.40;1.50;;;;;;;0.63;84.14;100605.81;105659;1254;76702;-24
2023/01/23 04:37:27;;;;;;;2.30;1.60;;;;;;;0.72;83.37;100610.98;105844;1254;75254;-24
2023/01/23 04:39:55;;;;;;;4.20;2.40;;;;;;;0.51;83.58;100607.88;105657;1257;62124;-24
2023/01/23 04:42:22;;;;;;;3.80;1.80;;;;;;;0.24;83.85;100607.76;105709;1257;62820;-24
2023/01/23 04:45:10;;;;;;;1.90;1.50;;;;;;;-0.08;85.06;100612.09;105809;1252;74568;-25
2023/01/23 04:47:56;;;;;;;1.60;1.00;;;;;;;0.25;85.46;100613.70;105828;1254;75664;-24
2023/01/23 04:50:23;;;;;;;1.30;1.00;;;;;;;0.59;84.06;100615.27;105681;1257;74933;-24
2023/01/23 04:52:50;;;;;;;1.30;1.10;;;;;;;0.55;83.33;100623.38;105648;1254;61791;-24
2023/01/23 04:55:18;;;;;;;2.10;1.50;;;;;;;0.32;83.77;100622.16;105703;1258;62628;-24
2023/01/23 04:57:45;;;;;;;1.40;1.00;;;;;;;0.02;84.54;100622.89;105791;1257;74416;-24
2023/01/23 05:00:20;;;;;;;1.00;0.90;;;;;;;0.01;85.26;100626.31;105506;1259;76581;-23
2023/01/23 05:02:48;;;;;;;0.80;0.60;;;;;;;0.42;84.71;100628.16;105403;1260;75135;-23
2023/01/23 05:05:19;;;;;;;1.30;1.10;;;;;;;0.53;83.97;100634.34;105786;1253;61551;-24
2023/01/23 05:07:49;;;;;;;0.90;0.90;;;;;;;0.34;83.93;100632.38;105840;1254;62786;-23
2023/01/23 05:10:16;;;;;;;1.20;1.10;;;;;;;0.08;84.77;100635.45;105655;1254;75863;-24
2023/01/23 05:12:44;;;;;;;1.80;1.40;;;;;;;-0.14;85.34;100636.73;105614;1257;75554;-24
2023/01/23 05:15:12;;;;;;;1.60;1.20;;;;;;;0.11;85.66;100640.19;105615;1255;75092;-24
2023/01/23 05:17:40;;;;;;;1.90;1.20;;;;;;;0.61;84.60;100647.03;105601;1254;61659;-24
2023/01/23 05:20:08;;;;;;;2.00;1.40;;;;;;;0.66;83.95;100650.20;105813;1253;61772;-23
2023/01/23 05:22:37;;;;;;;2.30;1.70;;;;;;;0.42;83.98;100652.61;105662;1254;76162;-23
2023/01/23 05:25:06;;;;;;;1.40;0.90;;;;;;;0.13;84.37;100657.59;105648;1254;76726;-23
2023/01/23 05:27:33;;;;;;;3.50;2.10;;;;;;;-0.08;85.49;100658.55;105639;1259;75190;-24
2023/01/23 05:30:01;;;;;;;2.50;1.80;;;;;;;0.16;85.50;100664.90;105600;1257;61760;-24
2023/01/23 05:32:31;;;;;;;3.40;1.90;;;;;;;0.45;84.96;100672.22;105799;1254;61299;-23
2023/01/23 05:35:08;;;;;;;14.50;5.90;;;;;;;0.42;84.49;100672.77;105562;1254;76174;-23
2023/01/23 05:37:36;;;;;;;11.80;6.20;;;;;;;0.21;84.85;100674.74;105608;1254;76540;-24
2023/01/23 05:40:07;;;;;;;8.60;4.20;;;;;;;-0.03;85.43;100674.18;105597;1257;73930;-25
2023/01/23 05:42:54;;;;;;;15.30;5.20;;;;;;;0.14;86.13;100681.98;105645;1254;62559;-23
2023/01/23 05:45:43;;;;;;;8.90;4.90;;;;;;;0.65;84.85;100683.39;105671;1254;61604;-24
2023/01/23 05:48:18;;;;;;;17.20;8.60;;;;;;;0.68;84.16;100687.62;105678;1257;75062;-24
2023/01/23 05:50:45;;;;;;;13.30;7.20;;;;;;;0.55;84.45;100687.63;105647;1254;76736;-23
2023/01/23 05:53:13;;;;;;;11.10;5.50;;;;;;;0.35;84.94;100690.64;105685;1257;74074;-24
2023/01/23 05:55:40;;;;;;;6.80;2.60;;;;;;;0.11;85.34;100686.83;105817;1253;61170;-24
2023/01/23 05:58:07;;;;;;;3.60;2.30;;;;;;;0.36;85.40;100691.14;105783;1253;61556;-24
2023/01/23 06:00:55;;;;;;;3.70;2.20;;;;;;;0.83;84.21;100693.20;105707;1256;75298;-24
2023/01/23 06:03:48;;;;;;;2.40;1.50;;;;;;;0.75;83.48;100691.45;105566;1257;77123;-24
2023/01/23 06:06:36;;;;;;;2.70;1.90;;;;;;;0.42;83.74;100698.05;105651;1254;75060;-24
2023/01/23 06:09:03;;;;;;;2.00;1.40;;;;;;;0.21;84.68;100700.88;105643;1253;61080;-24
2023/01/23 06:11:30;;;;;;;2.10;1.60;;;;;;;0.09;85.28;100702.03;105723;1254;61535;-24
2023/01/23 06:13:57;;;;;;;2.70;1.80;;;;;;;0.49;84.58;100706.67;105575;1255;75984;-24
2023/01/23 06:16:24;;;;;;;2.80;2.20;;;;;;;0.68;83.77;100711.73;105609;1256;76442;-24
2023/01/23 06:18:52;;;;;;;3.50;2.30;;;;;;;0.53;83.63;100717.90;105733;1255;75237;-24
2023/01/23 06:21:19;;;;;;;2.10;1.70;;;;;;;0.34;83.91;100722.42;105799;1254;61068;-24
2023/01/23 06:23:46;;;;;;;3.20;1.80;;;;;;;0.14;84.69;100723.85;105675;1252;62786;-23
2023/01/23 06:26:14;;;;;;;2.00;1.40;;;;;;;0.15;85.15;100730.15;105799;1257;74272;-23
2023/01/23 06:28:42;;;;;;;3.10;1.80;;;;;;;0.71;84.20;100732.20;105704;1254;75916;-24
2023/01/23 06:31:10;;;;;;;2.60;1.90;;;;;;;0.91;83.00;100736.88;105701;1254;73835;-24
2023/01/23 06:33:51;;;;;;;3.00;1.90;;;;;;;0.79;82.90;100738.41;105674;1255;62570;-24
2023/01/23 06:36:21;;;;;;;2.30;1.40;;;;;;;0.58;83.16;100740.40;105602;1253;61473;-24
2023/01/23 06:38:49;;;;;;;2.30;1.60;;;;;;;0.33;83.80;100741.58;105717;1256;75192;-23
2023/01/23 06:41:17;;;;;;;3.80;2.30;;;;;;;0.16;84.38;100742.78;105723;1254;76481;-24
2023/01/23 06:43:50;;;;;;;3.00;1.70;;;;;;;0.61;83.74;100747.38;105668;1256;74947;-24
2023/01/23 06:46:21;;;;;;;2.60;1.60;;;;;;;0.77;82.90;100750.08;105705;1259;63213;-24
2023/01/23 06:48:48;;;;;;;8.70;3.80;;;;;;;0.67;83.07;100749.70;105683;1252;62521;-24
2023/01/23 06:51:15;;;;;;;10.50;5.90;;;;;;;0.42;83.47;100747.44;105801;1257;74997;-24
2023/01/23 06:53:43;;;;;;;6.80;2.60;;;;;;;0.13;84.13;100753.08;105750;1254;75733;-24
2023/01/23 06:56:10;;;;;;;5.10;2.60;;;;;;;0.20;84.79;100760.85;105723;1254;75055;-24
2023/01/23 06:58:38;;;;;;;6.70;3.10;;;;;;;0.63;84.17;100759.65;105672;1252;61615;-24
2023/01/23 07:01:14;;;;;;;4.10;2.40;;;;;;;0.74;83.63;100760.54;105668;1253;61695;-24
2023/01/23 07:04:00;;;;;;;2.30;1.30;;;;;;;0.54;83.33;100752.25;105709;1253;76198;-24
2023/01/23 07:06:29;;;;;;;3.40;1.70;;;;;;;0.29;83.85;100751.19;105706;1253;75455;-24
2023/01/23 07:08:56;;;;;;;3.40;2.20;;;;;;;0.15;84.64;100754.76;105391;1257;74609;-24
2023/01/23 07:11:24;;;;;;;9.50;4.80;;;;;;;0.56;84.53;100754.78;105744;1253;61148;-24
2023/01/23 07:13:55;;;;;;;9.20;4.60;;;;;;;0.82;83.64;100758.38;105768;1254;61811;-24
2023/01/23 07:16:23;;;;;;;8.10;4.20;;;;;;;0.71;83.27;100760.40;105755;1257;76015;-24
2023/01/23 07:18:53;;;;;;;5.60;3.50;;;;;;;0.53;83.52;100758.41;105712;1254;76498;-24
2023/01/23 07:21:20;;;;;;;6.90;4.80;;;;;;;0.31;84.11;100767.73;105647;1255;75188;-24
2023/01/23 07:23:49;;;;;;;17.00;7.20;;;;;;;0.17;84.85;100769.94;105502;1259;62193;-24
2023/01/23 07:26:16;;;;;;;4.90;3.00;;;;;;;0.62;84.27;100768.89;105637;1254;61434;-24
2023/01/23 07:28:44;;;;;;;15.40;7.10;;;;;;;0.86;83.28;100771.67;105704;1254;76298;-24
2023/01/23 07:31:11;;;;;;;7.40;5.20;;;;;;;0.82;83.10;100767.79;105535;1257;75465;-24
2023/01/23 07:33:39;;;;;;;6.10;3.00;;;;;;;0.57;82.94;100765.73;105516;1254;75162;-24
2023/01/23 07:36:07;;;;;;;4.30;2.50;;;;;;;0.32;83.80;100766.52;105563;1259;61160;-25
2023/01/23 07:38:34;;;;;;;11.40;4.80;;;;;;;0.23;84.27;100762.88;105677;1254;61635;-24
2023/01/23 07:41:01;;;;;;;8.00;4.60;;;;;;;0.75;84.06;100761.73;105582;1259;75319;-24
2023/01/23 07:43:28;;;;;;;6.60;3.20;;;;;;;1.01;83.01;100758.44;105599;1259;75625;-24
2023/01/23 07:45:59;;;;;;;3.20;1.60;;;;;;;0.88;82.67;100760.01;105728;1256;75069;-24
2023/01/23 07:48:27;;;;;;;4.70;3.10;;;;;;;0.70;83.13;100761.97;105740;1254;62249;-24
2023/01/23 07:50:54;;;;;;;3.90;2.60;;;;;;;0.47;83.48;100766.51;105706;1253;62804;-24
2023/01/23 07:53:22;;;;;;;2.90;2.00;;;;;;;0.32;84.46;100773.19;105818;1251;74640;-24
2023/01/23 07:55:49;;;;;;;2.30;1.80;;;;;;;0.62;84.28;100778.46;105618;1252;75822;-24
2023/01/23 07:58:16;;;;;;;3.20;2.40;;;;;;;0.94;83.19;100781.98;105803;1256;74870;-24
2023/01/23 08:00:44;;;;;;;2.50;2.00;;;;;;;0.92;82.83;100782.02;105721;1254;61564;-25
2023/01/23 08:03:12;;;;;;;3.50;2.40;;;;;;;0.76;82.93;100783.60;105791;1254;62836;-25
2023/01/23 08:05:39;;;;;;;3.90;2.40;;;;;;;0.46;83.48;100782.78;105815;1256;75184;-24
2023/01/23 08:08:09;;;;;;;2.40;2.20;;;;;;;0.39;83.98;100787.29;105551;1253;75540;-24
2023/01/23 08:10:40;;;;;;;2.60;2.00;;;;;;;0.76;83.24;100789.07;105763;1254;75826;-24
2023/01/23 08:13:07;;;;;;;5.80;3.30;;;;;;;0.86;82.47;100789.27;105721;1254;62663;-24
2023/01/23 08:15:36;;;;;;;6.60;3.60;;;;;;;0.75;82.53;100788.73;105665;1252;61466;-25
2023/01/23 08:18:03;;;;;;;5.20;3.70;;;;;;;0.46;83.48;100789.95;105546;1259;76020;-24
2023/01/23 08:20:31;;;;;;;3.80;2.80;;;;;;;0.37;83.95;100792.11;105649;1255;76922;-24
2023/01/23 08:23:00;;;;;;;3.30;2.20;;;;;;;0.26;84.23;100794.78;105591;1254;73584;-24
2023/01/23 08:25:27;;;;;;;5.60;3.50;;;;;;;0.76;84.28;100795.04;105821;1256;61284;-24
2023/01/23 08:27:54;;;;;;;6.10;3.40;;;;;;;1.33;82.89;100799.56;105714;1254;61278;-24
2023/01/23 08:30:22;;;;;;;4.80;3.40;;;;;;;1.41;81.92;100800.29;105886;1255;75988;-24
2023/01/23 08:32:49;;;;;;;5.50;3.70;;;;;;;1.23;81.95;100800.92;105855;1252;75536;-24
2023/01/23 08:35:17;;;;;;;4.50;3.00;;;;;;;0.93;82.18;100805.27;105888;1254;75153;-24
2023/01/23 08:37:44;;;;;;;6.80;3.90;;;;;;;0.67;83.10;100807.14;105851;1256;61186;-24
2023/01/23 08:40:12;;;;;;;5.40;2.90;;;;;;;0.51;83.87;100815.52;105818;1257;62491;-24
2023/01/23 08:42:39;;;;;;;8.00;4.30;;;;;;;0.94;83.86;100819.09;105741;1252;75209;-26
2023/01/23 08:45:07;;;;;;;6.90;4.30;;;;;;;1.53;83.07;100818.25;105848;1257;75131;-25
2023/01/23 08:47:35;;;;;;;6.90;4.30;;;;;;;1.62;81.80;100816.75;105713;1254;75289;-24
2023/01/23 08:50:04;;;;;;;5.90;4.30;;;;;;;1.48;81.88;100816.28;105823;1253;61864;-24
2023/01/23 08:52:33;;;;;;;5.80;4.20;;;;;;;1.27;82.36;100815.39;105645;1253;61463;-24
2023/01/23 08:55:01;;;;;;;6.40;4.50;;;;;;;1.00;82.70;100813.21;105546;1253;74633;-24
2023/01/23 08:57:28;;;;;;;16.90;10.10;;;;;;;0.64;83.61;100812.64;105501;1253;76002;-24
2023/01/23 08:59:55;;;;;;;6.70;3.50;;;;;;;0.45;85.05;100809.95;105741;1254;75335;-24
2023/01/23 09:02:22;;;;;;;6.30;4.10;;;;;;;1.08;84.08;100808.83;105814;1256;61597;-24
2023/01/23 09:04:50;;;;;;;7.50;5.00;;;;;;;1.68;82.74;100810.48;105878;1257;62448;-24
2023/01/23 09:07:17;;;;;;;9.30;6.00;;;;;;;1.57;81.27;100812.55;105879;1257;76337;-24
2023/01/23 09:09:45;;;;;;;7.80;5.20;;;;;;;1.44;81.71;100811.02;105952;1257;76777;-25
2023/01/23 09:12:12;;;;;;;6.60;4.10;;;;;;;1.07;81.94;100818.23;105946;1256;74102;-24
2023/01/23 09:14:40;;;;;;;7.30;4.60;;;;;;;0.71;82.92;100819.05;105590;1257;61116;-24
2023/01/23 09:17:07;;;;;;;4.70;2.70;;;;;;;0.37;84.92;100817.05;105584;1254;61792;-23
2023/01/23 09:19:34;;;;;;;5.80;3.60;;;;;;;0.45;85.04;100818.32;105753;1257;76163;-24
2023/01/23 09:22:02;;;;;;;9.10;4.80;;;;;;;0.80;84.60;100818.76;105625;1255;76766;-24
2023/01/23 09:24:29;;;;;;;4.70;3.00;;;;;;;1.23;83.64;100825.38;105691;1254;75110;-24
2023/01/23 09:26:57;;;;;;;8.20;4.70;;;;;;;1.30;82.84;100826.98;105654;1254;61872;-24
2023/01/23 09:29:24;;;;;;;5.10;3.20;;;;;;;1.10;82.76;100826.08;105708;1257;62537;-24
2023/01/23 09:31:51;;;;;;;9.90;6.80;;;;;;;0.91;82.95;100823.41;105884;1257;75827;-24
2023/01/23 09:34:19;;;;;;;6.40;3.80;;;;;;;0.71;83.73;100823.99;105758;1254;76794;-24
2023/01/23 09:36:46;;;;;;;5.10;2.50;;;;;;;0.85;83.95;100824.19;105692;1254;75271;-24
2023/01/23 09:39:13;;;;;;;14.10;9.00;;;;;;;1.52;82.77;100826.14;105746;1251;61798;-24
2023/01/23 09:41:40;;;;;;;5.80;4.00;;;;;;;1.75;81.22;100825.45;105658;1254;61170;-24
2023/01/23 09:44:18;;;;;;;5.80;4.20;;;;;;;1.70;80.90;100825.19;105633;1251;76391;-24
2023/01/23 09:46:49;;;;;;;9.90;5.70;;;;;;;1.48;81.05;100821.41;105661;1259;75848;-24
2023/01/23 09:49:23;;;;;;;6.50;4.30;;;;;;;1.23;81.56;100822.30;105696;1254;74031;-24
2023/01/23 09:51:57;;;;;;;7.30;4.60;;;;;;;0.85;82.61;100815.98;105579;1258;61216;-24
2023/01/23 09:54:28;;;;;;;5.40;2.60;;;;;;;0.78;83.41;100816.40;105714;1256;63326;-23
2023/01/23 09:56:55;;;;;;;6.00;3.90;;;;;;;1.32;83.07;100817.36;105720;1254;76242;-25
2023/01/23 09:59:35;;;;;;;5.70;3.80;;;;;;;1.89;80.96;100820.58;105631;1259;75575;-24
2023/01/23 10:02:21;;;;;;;4.20;2.90;;;;;;;2.01;80.05;100817.80;105466;1254;74986;-24
2023/01/23 10:04:51;;;;;;;5.20;2.90;;;;;;;1.74;80.08;100818.78;105617;1253;62906;-24
2023/01/23 10:07:25;;;;;;;5.80;3.80;;;;;;;1.34;80.37;100808.61;105811;1257;62602;-24
2023/01/23 10:10:01;;;;;;;;;;;;;;;0.85;82.22;100808.78;105720;1254;76366;-24
2023/01/23 10:12:57;;;;;;;5.70;3.90;;;;;;;0.52;83.51;100810.04;105612;1258;75793;-24
2023/01/23 10:15:50;;;;;;;5.80;3.60;;;;;;;0.44;85.58;100809.44;105380;1252;73883;-24
2023/01/23 10:18:32;;;;;;;2.30;1.60;;;;;;;1.37;83.80;100808.73;105707;1254;62855;-24
2023/01/23 10:21:15;;;;;;;6.00;3.50;;;;;;;1.61;81.49;100809.75;105649;1258;62575;-24
2023/01/23 10:24:01;;;;;;;7.80;4.20;;;;;;;1.15;81.46;100805.98;105605;1252;75184;-24
2023/01/23 10:26:30;;;;;;;4.40;2.70;;;;;;;1.09;82.35;100803.52;105866;1254;76515;-24
2023/01/23 10:29:02;;;;;;;5.90;3.10;;;;;;;0.91;82.31;100799.65;105747;1254;74164;-25
2023/01/23 10:31:47;;;;;;;4.30;2.70;;;;;;;0.77;83.11;100793.67;105712;1254;61183;-23
2023/01/23 10:34:43;;;;;;;3.80;2.80;;;;;;;0.68;83.76;100791.73;105759;1252;62847;-24
2023/01/23 10:37:41;;;;;;;5.20;3.40;;;;;;;1.16;82.87;100785.27;105686;1254;76408;-24
2023/01/23 10:40:14;;;;;;;10.40;5.30;;;;;;;1.59;81.96;100780.86;105837;1251;76871;-24
2023/01/23 10:42:41;;;;;;;6.10;3.80;;;;;;;1.43;81.95;100774.75;105682;1251;72852;-24
2023/01/23 10:45:14;;;;;;;6.20;3.90;;;;;;;1.48;81.82;100768.52;105898;1253;61089;-24
2023/01/23 10:47:44;;;;;;;6.50;4.50;;;;;;;1.30;81.66;100763.84;105645;1258;62708;-25
2023/01/23 10:50:15;;;;;;;7.60;4.50;;;;;;;1.11;81.99;100760.89;105409;1254;76324;-25
2023/01/23 10:52:44;;;;;;;3.90;2.90;;;;;;;0.97;82.55;100767.06;105274;1260;76635;-24
2023/01/23 10:55:18;;;;;;;13.10;6.20;;;;;;;1.43;82.46;100764.49;105422;1259;74257;-24
2023/01/23 10:57:47;;;;;;;8.40;4.70;;;;;;;1.83;80.57;100760.91;105574;1256;62858;-25
2023/01/23 11:00:43;;;;;;;7.00;4.20;;;;;;;1.83;79.84;100757.33;105645;1258;62852;-25
2023/01/23 11:03:20;;;;;;;5.00;2.90;;;;;;;1.59;80.16;100759.10;105321;1259;75208;-25
2023/01/23 11:05:54;;;;;;;4.20;3.40;;;;;;;1.35;80.73;100752.98;105542;1256;76749;-24
2023/01/23 11:08:32;;;;;;;6.90;4.00;;;;;;;1.15;81.24;100754.66;105516;1254;74241;-24
2023/01/23 11:11:14;;;;;;;6.10;3.30;;;;;;;1.05;81.75;100753.11;105425;1254;62289;-25
2023/01/23 11:13:43;;;;;;;6.10;3.10;;;;;;;1.52;81.94;100751.19;105514;1252;62020;-24
2023/01/23 11:16:20;;;;;;;5.00;2.90;;;;;;;1.85;80.57;100747.69;105590;1259;75262;-25
2023/01/23 11:19:15;;;;;;;7.10;4.20;;;;;;;1.74;80.31;100747.03;105559;1254;76922;-25
2023/01/23 11:22:01;;;;;;;11.90;6.10;;;;;;;1.44;81.07;100749.59;105342;1259;75343;-25
2023/01/23 11:24:37;;;;;;;17.80;10.20;;;;;;;1.19;82.27;100746.55;105532;1251;61719;-24
2023/01/23 11:27:13;;;;;;;19.10;10.20;;;;;;;1.10;82.94;100748.92;105404;1259;62748;-25
2023/01/23 11:29:47;;;;;;;9.20;5.00;;;;;;;0.83;84.25;100751.88;105524;1254;76445;-25
2023/01/23 11:32:14;;;;;;;;;;;;;;;1.20;83.86;100751.16;105547;1254;75641;-24
2023/01/23 11:34:44;;;;;;;7.10;4.20;;;;;;;1.64;81.97;100754.91;105490;1254;75361;-25
2023/01/23 11:37:15;;;;;;;7.30;3.90;;;;;;;1.80;80.62;100750.17;105381;1258;62870;-24
2023/01/23 11:39:53;;;;;;;7.20;3.90;;;;;;;1.70;80.61;100753.09;105520;1256;62792;-25
2023/01/23 11:42:22;;;;;;;5.40;4.00;;;;;;;1.47;80.87;100752.63;105504;1255;75114;-25
2023/01/23 11:44:50;;;;;;;6.70;4.20;;;;;;;1.28;81.54;100748.14;105532;1254;75513;-25
2023/01/23 11:47:29;;;;;;;4.60;3.10;;;;;;;1.04;81.83;100744.90;105496;1259;73957;-24